sensor_id;sensor_type;location;lat;lon;timestamp;temperature;humidity
17571;DHT22;8903;52.220;20.978;2024-03-22T00:01:15;9.20;99.90
17571;DHT22;8903;52.220;20.978;2024-03-22T00:03:41;9.20;99.90
17571;DHT22;8903;52.220;20.978;2024-03-22T00:06:07;9.20;99.90
17571;DHT22;8903;52.220;20.978;2024-03-22T00:08:32;9.20;99.90
17571;DHT22;8903;52.220;20.978;2024-03-22T00:10:58;9.20;99.90
17571;DHT22;8903;52.220;20.978;2024-03-22T00:13:24;9.20;99.90
17571;DHT22;8903;52.220;20.978;2024-03-22T00:15:49;9.20;99.90
17571;DHT22;8903;52.220;20.978;2024-03-22T00:18:15;9.20;99.90
17571;DHT22;8903;52.220;20.978;2024-03-22T00:20:41;9.20;99.90
17571;DHT22;8903;52.220;20.978;2024-03-22T00:23:07;9.20;99.90
17571;DHT22;8903;52.220;20.978;2024-03-22T00:25:32;9.30;99.90
17571;DHT22;8903;52.220;20.978;2024-03-22T00:27:58;9.20;99.90
17571;DHT22;8903;52.220;20.978;2024-03-22T00:30:24;9.30;99.90
17571;DHT22;8903;52.220;20.978;2024-03-22T00:32:50;9.30;99.90
17571;DHT22;8903;52.220;20.978;2024-03-22T00:35:16;9.30;99.90
17571;DHT22;8903;52.220;20.978;2024-03-22T00:37:42;9.30;99.90
17571;DHT22;8903;52.220;20.978;2024-03-22T00:40:07;9.30;99.90
17571;DHT22;8903;52.220;20.978;2024-03-22T00:42:33;9.30;99.90
17571;DHT22;8903;52.220;20.978;2024-03-22T00:44:59;9.30;99.90
17571;DHT22;8903;52.220;20.978;2024-03-22T00:47:24;9.30;99.90
17571;DHT22;8903;52.220;20.978;2024-03-22T00:49:50;9.30;99.90
17571;DHT22;8903;52.220;20.978;2024-03-22T00:52:16;9.20;99.90
17571;DHT22;8903;52.220;20.978;2024-03-22T00:54:42;9.20;99.90
17571;DHT22;8903;52.220;20.978;2024-03-22T00:57:08;9.10;99.90
17571;DHT22;8903;52.220;20.978;2024-03-22T00:59:34;9.10;99.90
17571;DHT22;8903;52.220;20.978;2024-03-22T01:02:00;9.10;99.90
17571;DHT22;8903;52.220;20.978;2024-03-22T01:04:25;9.10;99.90
17571;DHT22;8903;52.220;20.978;2024-03-22T01:06:51;9.10;99.90
17571;DHT22;8903;52.220;20.978;2024-03-22T01:09:17;9.00;99.90
17571;DHT22;8903;52.220;20.978;2024-03-22T01:11:43;9.00;99.90
17571;DHT22;8903;52.220;20.978;2024-03-22T01:14:08;9.00;99.90
17571;DHT22;8903;52.220;20.978;2024-03-22T01:16:34;9.00;99.90
17571;DHT22;8903;52.220;20.978;2024-03-22T01:18:59;9.00;99.90
17571;DHT22;8903;52.220;20.978;2024-03-22T01:21:25;9.00;99.90
17571;DHT22;8903;52.220;20.978;2024-03-22T01:23:54;9.00;99.90
17571;DHT22;8903;52.220;20.978;2024-03-22T01:26:20;9.00;99.90
17571;DHT22;8903;52.220;20.978;2024-03-22T01:28:46;9.00;99.90
17571;DHT22;8903;52.220;20.978;2024-03-22T01:31:12;9.00;99.90
17571;DHT22;8903;52.220;20.978;2024-03-22T01:33:38;9.00;99.90
17571;DHT22;8903;52.220;20.978;2024-03-22T01:36:04;9.00;99.90
17571;DHT22;8903;52.220;20.978;2024-03-22T01:38:31;9.00;99.90
17571;DHT22;8903;52.220;20.978;2024-03-22T01:40:57;9.10;99.90
17571;DHT22;8903;52.220;20.978;2024-03-22T01:43:22;9.00;99.90
17571;DHT22;8903;52.220;20.978;2024-03-22T01:45:48;9.00;99.90
17571;DHT22;8903;52.220;20.978;2024-03-22T01:48:14;9.10;99.90
17571;DHT22;8903;52.220;20.978;2024-03-22T01:50:41;9.10;99.90
17571;DHT22;8903;52.220;20.978;2024-03-22T01:53:08;9.10;99.90
17571;DHT22;8903;52.220;20.978;2024-03-22T01:55:34;9.10;99.90
17571;DHT22;8903;52.220;20.978;2024-03-22T01:58:00;9.10;99.90
17571;DHT22;8903;52.220;20.978;2024-03-22T02:00:26;9.10;99.90
17571;DHT22;8903;52.220;20.978;2024-03-22T02:02:51;9.00;99.90
17571;DHT22;8903;52.220;20.978;2024-03-22T02:05:18;9.00;99.90
17571;DHT22;8903;52.220;20.978;2024-03-22T02:07:47;9.00;99.90
17571;DHT22;8903;52.220;20.978;2024-03-22T02:10:14;9.00;99.90
17571;DHT22;8903;52.220;20.978;2024-03-22T02:12:40;9.00;99.90
17571;DHT22;8903;52.220;20.978;2024-03-22T02:15:07;9.00;99.90
17571;DHT22;8903;52.220;20.978;2024-03-22T02:17:34;9.00;99.90
17571;DHT22;8903;52.220;20.978;2024-03-22T02:20:00;8.90;99.90
17571;DHT22;8903;52.220;20.978;2024-03-22T02:22:27;9.00;99.90
17571;DHT22;8903;52.220;20.978;2024-03-22T02:24:53;9.00;99.90
17571;DHT22;8903;52.220;20.978;2024-03-22T02:27:19;9.00;99.90
17571;DHT22;8903;52.220;20.978;2024-03-22T02:29:45;9.10;99.90
17571;DHT22;8903;52.220;20.978;2024-03-22T02:32:11;9.00;99.90
17571;DHT22;8903;52.220;20.978;2024-03-22T02:34:36;9.10;99.90
17571;DHT22;8903;52.220;20.978;2024-03-22T02:37:02;9.00;99.90
17571;DHT22;8903;52.220;20.978;2024-03-22T02:39:28;9.00;99.90
17571;DHT22;8903;52.220;20.978;2024-03-22T02:41:54;9.00;99.90
17571;DHT22;8903;52.220;20.978;2024-03-22T02:44:20;8.90;99.90
17571;DHT22;8903;52.220;20.978;2024-03-22T02:46:46;9.00;99.90
17571;DHT22;8903;52.220;20.978;2024-03-22T02:49:12;9.00;99.90
17571;DHT22;8903;52.220;20.978;2024-03-22T02:51:38;9.00;99.90
17571;DHT22;8903;52.220;20.978;2024-03-22T02:54:04;9.00;99.90
17571;DHT22;8903;52.220;20.978;2024-03-22T02:56:30;9.10;99.90
17571;DHT22;8903;52.220;20.978;2024-03-22T02:58:56;9.10;99.90
17571;DHT22;8903;52.220;20.978;2024-03-22T03:01:21;9.00;99.90
17571;DHT22;8903;52.220;20.978;2024-03-22T03:03:47;9.00;99.90
17571;DHT22;8903;52.220;20.978;2024-03-22T03:06:13;9.10;99.90
17571;DHT22;8903;52.220;20.978;2024-03-22T03:08:39;9.00;99.90
17571;DHT22;8903;52.220;20.978;2024-03-22T03:11:05;9.00;99.90
17571;DHT22;8903;52.220;20.978;2024-03-22T03:13:30;9.10;99.90
17571;DHT22;8903;52.220;20.978;2024-03-22T03:15:57;9.10;99.90
17571;DHT22;8903;52.220;20.978;2024-03-22T03:18:23;9.10;99.90
17571;DHT22;8903;52.220;20.978;2024-03-22T03:20:49;9.10;99.90
17571;DHT22;8903;52.220;20.978;2024-03-22T03:23:14;9.10;99.90
17571;DHT22;8903;52.220;20.978;2024-03-22T03:25:40;9.10;99.90
17571;DHT22;8903;52.220;20.978;2024-03-22T03:28:06;9.10;99.90
17571;DHT22;8903;52.220;20.978;2024-03-22T03:30:34;9.00;99.90
17571;DHT22;8903;52.220;20.978;2024-03-22T03:33:00;9.00;99.90
17571;DHT22;8903;52.220;20.978;2024-03-22T03:35:26;9.00;99.90
17571;DHT22;8903;52.220;20.978;2024-03-22T03:37:52;9.00;99.90
17571;DHT22;8903;52.220;20.978;2024-03-22T03:40:18;9.00;99.90
17571;DHT22;8903;52.220;20.978;2024-03-22T03:42:44;9.00;99.90
17571;DHT22;8903;52.220;20.978;2024-03-22T03:45:09;8.90;99.90
17571;DHT22;8903;52.220;20.978;2024-03-22T03:47:35;8.90;99.90
17571;DHT22;8903;52.220;20.978;2024-03-22T03:50:01;8.90;99.90
17571;DHT22;8903;52.220;20.978;2024-03-22T03:52:27;8.90;99.90
17571;DHT22;8903;52.220;20.978;2024-03-22T03:54:53;8.80;99.90
17571;DHT22;8903;52.220;20.978;2024-03-22T03:57:19;8.80;99.90
17571;DHT22;8903;52.220;20.978;2024-03-22T03:59:44;8.70;99.90
17571;DHT22;8903;52.220;20.978;2024-03-22T04:02:10;8.70;99.90
17571;DHT22;8903;52.220;20.978;2024-03-22T04:04:36;8.60;99.90
17571;DHT22;8903;52.220;20.978;2024-03-22T04:07:01;8.50;99.90
17571;DHT22;8903;52.220;20.978;2024-03-22T04:09:27;8.40;99.90
17571;DHT22;8903;52.220;20.978;2024-03-22T04:11:53;8.40;99.90
17571;DHT22;8903;52.220;20.978;2024-03-22T04:14:19;8.40;99.90
17571;DHT22;8903;52.220;20.978;2024-03-22T04:16:45;8.40;99.90
17571;DHT22;8903;52.220;20.978;2024-03-22T04:19:10;8.30;99.90
17571;DHT22;8903;52.220;20.978;2024-03-22T04:21:36;8.20;99.90
17571;DHT22;8903;52.220;20.978;2024-03-22T04:24:02;8.20;99.90
17571;DHT22;8903;52.220;20.978;2024-03-22T04:26:27;8.20;99.90
17571;DHT22;8903;52.220;20.978;2024-03-22T04:28:53;8.10;99.90
17571;DHT22;8903;52.220;20.978;2024-03-22T04:31:19;8.10;99.90
17571;DHT22;8903;52.220;20.978;2024-03-22T04:33:44;8.10;99.90
17571;DHT22;8903;52.220;20.978;2024-03-22T04:36:10;8.00;99.90
17571;DHT22;8903;52.220;20.978;2024-03-22T04:38:36;8.00;99.90
17571;DHT22;8903;52.220;20.978;2024-03-22T04:41:02;8.00;99.90
17571;DHT22;8903;52.220;20.978;2024-03-22T04:43:28;7.90;99.90
17571;DHT22;8903;52.220;20.978;2024-03-22T04:45:53;7.90;99.90
17571;DHT22;8903;52.220;20.978;2024-03-22T04:48:21;7.90;99.90
17571;DHT22;8903;52.220;20.978;2024-03-22T04:50:47;7.90;99.90
17571;DHT22;8903;52.220;20.978;2024-03-22T04:53:19;7.80;99.90
17571;DHT22;8903;52.220;20.978;2024-03-22T04:55:47;7.80;99.90
17571;DHT22;8903;52.220;20.978;2024-03-22T04:58:22;7.80;99.90
17571;DHT22;8903;52.220;20.978;2024-03-22T05:00:49;7.80;99.90
17571;DHT22;8903;52.220;20.978;2024-03-22T05:03:15;7.80;99.90
17571;DHT22;8903;52.220;20.978;2024-03-22T05:05:42;7.80;99.90
17571;DHT22;8903;52.220;20.978;2024-03-22T05:08:08;7.80;99.90
17571;DHT22;8903;52.220;20.978;2024-03-22T05:10:35;7.80;99.90
17571;DHT22;8903;52.220;20.978;2024-03-22T05:13:01;7.80;99.90
17571;DHT22;8903;52.220;20.978;2024-03-22T05:15:26;7.80;99.90
17571;DHT22;8903;52.220;20.978;2024-03-22T05:17:53;7.80;99.90
17571;DHT22;8903;52.220;20.978;2024-03-22T05:20:20;7.80;99.90
17571;DHT22;8903;52.220;20.978;2024-03-22T05:22:47;7.90;99.90
17571;DHT22;8903;52.220;20.978;2024-03-22T05:25:13;7.90;99.90
17571;DHT22;8903;52.220;20.978;2024-03-22T05:27:41;7.80;99.90
17571;DHT22;8903;52.220;20.978;2024-03-22T05:30:08;7.80;99.90
17571;DHT22;8903;52.220;20.978;2024-03-22T05:32:35;7.80;99.90
17571;DHT22;8903;52.220;20.978;2024-03-22T05:35:01;7.90;99.90
17571;DHT22;8903;52.220;20.978;2024-03-22T05:37:26;7.90;99.90
17571;DHT22;8903;52.220;20.978;2024-03-22T05:39:52;7.90;99.90
17571;DHT22;8903;52.220;20.978;2024-03-22T05:42:18;7.90;99.90
17571;DHT22;8903;52.220;20.978;2024-03-22T05:44:44;7.90;99.90
17571;DHT22;8903;52.220;20.978;2024-03-22T05:47:10;7.80;99.90
17571;DHT22;8903;52.220;20.978;2024-03-22T05:49:36;7.90;99.90
17571;DHT22;8903;52.220;20.978;2024-03-22T05:52:02;7.90;99.90
17571;DHT22;8903;52.220;20.978;2024-03-22T05:54:27;7.90;99.90
17571;DHT22;8903;52.220;20.978;2024-03-22T05:56:53;7.90;99.90
17571;DHT22;8903;52.220;20.978;2024-03-22T05:59:19;7.90;99.90
17571;DHT22;8903;52.220;20.978;2024-03-22T06:01:45;7.90;99.90
17571;DHT22;8903;52.220;20.978;2024-03-22T06:04:10;7.90;99.90
17571;DHT22;8903;52.220;20.978;2024-03-22T06:06:36;7.90;99.90
17571;DHT22;8903;52.220;20.978;2024-03-22T06:09:02;7.90;99.90
17571;DHT22;8903;52.220;20.978;2024-03-22T06:11:37;7.90;99.90
17571;DHT22;8903;52.220;20.978;2024-03-22T06:14:02;7.90;99.90
17571;DHT22;8903;52.220;20.978;2024-03-22T06:16:28;7.90;99.90
17571;DHT22;8903;52.220;20.978;2024-03-22T06:18:54;7.90;99.90
17571;DHT22;8903;52.220;20.978;2024-03-22T06:21:19;7.90;99.90
17571;DHT22;8903;52.220;20.978;2024-03-22T06:23:51;8.00;99.90
17571;DHT22;8903;52.220;20.978;2024-03-22T06:26:17;8.00;99.90
17571;DHT22;8903;52.220;20.978;2024-03-22T06:28:44;8.10;99.90
17571;DHT22;8903;52.220;20.978;2024-03-22T06:31:09;8.10;99.90
17571;DHT22;8903;52.220;20.978;2024-03-22T06:33:35;8.00;99.90
17571;DHT22;8903;52.220;20.978;2024-03-22T06:36:02;8.00;99.90
17571;DHT22;8903;52.220;20.978;2024-03-22T06:38:28;8.10;99.90
17571;DHT22;8903;52.220;20.978;2024-03-22T06:40:54;8.10;99.90
17571;DHT22;8903;52.220;20.978;2024-03-22T06:43:20;8.10;99.90
17571;DHT22;8903;52.220;20.978;2024-03-22T06:45:46;8.20;99.90
17571;DHT22;8903;52.220;20.978;2024-03-22T06:48:12;8.20;99.90
17571;DHT22;8903;52.220;20.978;2024-03-22T06:50:37;8.30;99.90
17571;DHT22;8903;52.220;20.978;2024-03-22T06:53:03;8.30;99.90
17571;DHT22;8903;52.220;20.978;2024-03-22T06:55:29;8.20;99.90
17571;DHT22;8903;52.220;20.978;2024-03-22T06:57:55;8.20;99.90
17571;DHT22;8903;52.220;20.978;2024-03-22T07:00:21;8.20;99.90
17571;DHT22;8903;52.220;20.978;2024-03-22T07:02:47;8.20;99.90
17571;DHT22;8903;52.220;20.978;2024-03-22T07:05:12;8.20;99.90
17571;DHT22;8903;52.220;20.978;2024-03-22T07:07:38;8.30;99.90
17571;DHT22;8903;52.220;20.978;2024-03-22T07:10:04;8.40;99.90
17571;DHT22;8903;52.220;20.978;2024-03-22T07:12:33;8.40;99.90
17571;DHT22;8903;52.220;20.978;2024-03-22T07:15:02;8.40;99.90
17571;DHT22;8903;52.220;20.978;2024-03-22T07:17:28;8.40;99.90
17571;DHT22;8903;52.220;20.978;2024-03-22T07:19:55;8.40;99.90
17571;DHT22;8903;52.220;20.978;2024-03-22T07:22:22;8.40;99.90
17571;DHT22;8903;52.220;20.978;2024-03-22T07:24:48;8.40;99.90
17571;DHT22;8903;52.220;20.978;2024-03-22T07:27:14;8.40;99.90
17571;DHT22;8903;52.220;20.978;2024-03-22T07:29:44;8.40;99.90
17571;DHT22;8903;52.220;20.978;2024-03-22T07:32:09;8.40;99.90
17571;DHT22;8903;52.220;20.978;2024-03-22T07:34:35;8.40;99.90
17571;DHT22;8903;52.220;20.978;2024-03-22T07:37:01;8.40;99.90
17571;DHT22;8903;52.220;20.978;2024-03-22T07:39:27;8.40;99.90
17571;DHT22;8903;52.220;20.978;2024-03-22T07:41:53;8.30;99.90
17571;DHT22;8903;52.220;20.978;2024-03-22T07:44:18;8.20;99.90
17571;DHT22;8903;52.220;20.978;2024-03-22T07:46:49;8.20;99.90
17571;DHT22;8903;52.220;20.978;2024-03-22T07:49:15;8.20;99.90
17571;DHT22;8903;52.220;20.978;2024-03-22T07:51:41;8.30;99.90
17571;DHT22;8903;52.220;20.978;2024-03-22T07:54:06;8.30;99.90
17571;DHT22;8903;52.220;20.978;2024-03-22T07:56:32;8.40;99.90
17571;DHT22;8903;52.220;20.978;2024-03-22T07:58:58;8.50;99.90
17571;DHT22;8903;52.220;20.978;2024-03-22T08:01:24;8.50;99.90
17571;DHT22;8903;52.220;20.978;2024-03-22T08:03:51;8.60;99.90
17571;DHT22;8903;52.220;20.978;2024-03-22T08:06:17;8.60;99.90
17571;DHT22;8903;52.220;20.978;2024-03-22T08:08:43;8.60;99.90
17571;DHT22;8903;52.220;20.978;2024-03-22T08:11:09;8.70;99.90
17571;DHT22;8903;52.220;20.978;2024-03-22T08:13:35;8.70;99.90
17571;DHT22;8903;52.220;20.978;2024-03-22T08:16:00;8.60;99.90
17571;DHT22;8903;52.220;20.978;2024-03-22T08:18:26;8.60;99.90
17571;DHT22;8903;52.220;20.978;2024-03-22T08:20:52;8.60;99.90
17571;DHT22;8903;52.220;20.978;2024-03-22T08:23:18;8.60;99.90
17571;DHT22;8903;52.220;20.978;2024-03-22T08:25:46;8.60;99.90
17571;DHT22;8903;52.220;20.978;2024-03-22T08:28:12;8.70;99.90
17571;DHT22;8903;52.220;20.978;2024-03-22T08:30:39;8.70;99.90
17571;DHT22;8903;52.220;20.978;2024-03-22T08:33:05;8.80;99.90
17571;DHT22;8903;52.220;20.978;2024-03-22T08:35:30;8.80;99.90
17571;DHT22;8903;52.220;20.978;2024-03-22T08:37:56;8.90;99.90
17571;DHT22;8903;52.220;20.978;2024-03-22T08:40:22;8.90;99.90
17571;DHT22;8903;52.220;20.978;2024-03-22T08:42:48;8.90;99.90
17571;DHT22;8903;52.220;20.978;2024-03-22T08:45:14;8.90;99.90
17571;DHT22;8903;52.220;20.978;2024-03-22T08:47:42;8.90;99.90
17571;DHT22;8903;52.220;20.978;2024-03-22T08:50:08;8.80;99.90
17571;DHT22;8903;52.220;20.978;2024-03-22T08:52:34;8.90;99.90
17571;DHT22;8903;52.220;20.978;2024-03-22T08:55:01;8.90;99.90
17571;DHT22;8903;52.220;20.978;2024-03-22T08:57:27;8.90;99.90
17571;DHT22;8903;52.220;20.978;2024-03-22T08:59:53;9.00;99.90
17571;DHT22;8903;52.220;20.978;2024-03-22T09:02:18;9.00;99.90
17571;DHT22;8903;52.220;20.978;2024-03-22T09:04:45;9.00;99.90
17571;DHT22;8903;52.220;20.978;2024-03-22T09:07:12;9.00;99.90
17571;DHT22;8903;52.220;20.978;2024-03-22T09:09:37;9.10;99.90
17571;DHT22;8903;52.220;20.978;2024-03-22T09:12:03;9.20;99.90
17571;DHT22;8903;52.220;20.978;2024-03-22T09:14:29;9.20;99.90
17571;DHT22;8903;52.220;20.978;2024-03-22T09:16:55;9.20;99.90
17571;DHT22;8903;52.220;20.978;2024-03-22T09:19:20;9.20;99.90
17571;DHT22;8903;52.220;20.978;2024-03-22T09:21:47;9.20;99.90
17571;DHT22;8903;52.220;20.978;2024-03-22T09:24:12;9.20;99.90
17571;DHT22;8903;52.220;20.978;2024-03-22T09:26:38;9.30;99.90
17571;DHT22;8903;52.220;20.978;2024-03-22T09:29:04;9.30;99.90
17571;DHT22;8903;52.220;20.978;2024-03-22T09:31:30;9.30;99.90
17571;DHT22;8903;52.220;20.978;2024-03-22T09:33:59;9.30;99.90
17571;DHT22;8903;52.220;20.978;2024-03-22T09:36:24;9.30;99.90
17571;DHT22;8903;52.220;20.978;2024-03-22T09:38:50;9.30;99.90
17571;DHT22;8903;52.220;20.978;2024-03-22T09:41:23;9.30;99.90
17571;DHT22;8903;52.220;20.978;2024-03-22T09:43:51;9.40;99.90
17571;DHT22;8903;52.220;20.978;2024-03-22T09:46:19;9.40;99.90
17571;DHT22;8903;52.220;20.978;2024-03-22T09:48:47;9.50;99.90
17571;DHT22;8903;52.220;20.978;2024-03-22T09:51:16;9.50;99.90
17571;DHT22;8903;52.220;20.978;2024-03-22T09:53:44;9.40;99.90
17571;DHT22;8903;52.220;20.978;2024-03-22T09:56:14;9.50;99.90
17571;DHT22;8903;52.220;20.978;2024-03-22T09:58:41;9.50;99.90
17571;DHT22;8903;52.220;20.978;2024-03-22T10:01:07;9.40;99.90
17571;DHT22;8903;52.220;20.978;2024-03-22T10:03:33;9.40;99.90
17571;DHT22;8903;52.220;20.978;2024-03-22T10:05:59;9.50;99.90
17571;DHT22;8903;52.220;20.978;2024-03-22T10:08:25;9.50;99.90
17571;DHT22;8903;52.220;20.978;2024-03-22T10:10:50;9.50;99.90
17571;DHT22;8903;52.220;20.978;2024-03-22T10:13:16;9.50;99.90
17571;DHT22;8903;52.220;20.978;2024-03-22T10:15:42;9.50;99.90
17571;DHT22;8903;52.220;20.978;2024-03-22T10:18:10;9.60;99.90
17571;DHT22;8903;52.220;20.978;2024-03-22T10:20:35;9.60;99.90
17571;DHT22;8903;52.220;20.978;2024-03-22T10:23:01;9.60;99.90
17571;DHT22;8903;52.220;20.978;2024-03-22T10:25:27;9.50;99.90
17571;DHT22;8903;52.220;20.978;2024-03-22T10:27:56;9.50;99.90
17571;DHT22;8903;52.220;20.978;2024-03-22T10:30:24;9.50;99.90
17571;DHT22;8903;52.220;20.978;2024-03-22T10:32:50;9.40;99.90
17571;DHT22;8903;52.220;20.978;2024-03-22T10:35:16;9.40;99.90
17571;DHT22;8903;52.220;20.978;2024-03-22T10:37:42;9.40;99.90
17571;DHT22;8903;52.220;20.978;2024-03-22T10:40:09;9.30;99.90
17571;DHT22;8903;52.220;20.978;2024-03-22T10:42:36;9.20;99.90
17571;DHT22;8903;52.220;20.978;2024-03-22T10:45:04;9.20;99.90
17571;DHT22;8903;52.220;20.978;2024-03-22T10:47:32;9.20;99.90
17571;DHT22;8903;52.220;20.978;2024-03-22T10:50:10;9.20;99.90
17571;DHT22;8903;52.220;20.978;2024-03-22T10:52:39;9.30;99.90
17571;DHT22;8903;52.220;20.978;2024-03-22T10:55:12;9.30;99.90
17571;DHT22;8903;52.220;20.978;2024-03-22T10:57:40;9.30;99.90
17571;DHT22;8903;52.220;20.978;2024-03-22T11:00:10;9.30;99.90
17571;DHT22;8903;52.220;20.978;2024-03-22T11:02:36;9.30;99.90
17571;DHT22;8903;52.220;20.978;2024-03-22T11:05:06;9.40;99.90
17571;DHT22;8903;52.220;20.978;2024-03-22T11:07:33;9.40;99.90
17571;DHT22;8903;52.220;20.978;2024-03-22T11:10:01;9.40;99.90
17571;DHT22;8903;52.220;20.978;2024-03-22T11:12:31;9.40;99.90
17571;DHT22;8903;52.220;20.978;2024-03-22T11:14:59;9.60;99.90
17571;DHT22;8903;52.220;20.978;2024-03-22T11:17:25;9.70;99.90
17571;DHT22;8903;52.220;20.978;2024-03-22T11:19:51;9.80;99.90
17571;DHT22;8903;52.220;20.978;2024-03-22T11:22:18;9.90;99.90
17571;DHT22;8903;52.220;20.978;2024-03-22T11:24:44;9.90;99.90
17571;DHT22;8903;52.220;20.978;2024-03-22T11:27:11;9.90;99.90
17571;DHT22;8903;52.220;20.978;2024-03-22T11:29:38;9.90;99.90
17571;DHT22;8903;52.220;20.978;2024-03-22T11:32:07;9.80;99.90
17571;DHT22;8903;52.220;20.978;2024-03-22T11:34:38;9.90;99.90
17571;DHT22;8903;52.220;20.978;2024-03-22T11:37:05;9.90;99.90
17571;DHT22;8903;52.220;20.978;2024-03-22T11:39:33;9.80;99.90
17571;DHT22;8903;52.220;20.978;2024-03-22T11:42:04;9.80;99.90
17571;DHT22;8903;52.220;20.978;2024-03-22T11:44:31;9.80;99.90
17571;DHT22;8903;52.220;20.978;2024-03-22T11:46:57;9.80;99.90
17571;DHT22;8903;52.220;20.978;2024-03-22T11:49:24;9.90;99.90
17571;DHT22;8903;52.220;20.978;2024-03-22T11:51:51;9.80;99.90
17571;DHT22;8903;52.220;20.978;2024-03-22T11:54:19;9.80;99.90
17571;DHT22;8903;52.220;20.978;2024-03-22T11:56:45;9.90;99.90
17571;DHT22;8903;52.220;20.978;2024-03-22T11:59:11;9.90;99.90
17571;DHT22;8903;52.220;20.978;2024-03-22T12:01:37;9.90;99.90
17571;DHT22;8903;52.220;20.978;2024-03-22T12:04:02;9.90;99.90
17571;DHT22;8903;52.220;20.978;2024-03-22T12:06:29;10.00;99.90
17571;DHT22;8903;52.220;20.978;2024-03-22T12:08:55;10.10;99.90
17571;DHT22;8903;52.220;20.978;2024-03-22T12:11:21;10.10;99.90
17571;DHT22;8903;52.220;20.978;2024-03-22T12:13:47;10.20;99.90
17571;DHT22;8903;52.220;20.978;2024-03-22T12:16:12;10.20;99.90
17571;DHT22;8903;52.220;20.978;2024-03-22T12:18:38;10.20;99.90
17571;DHT22;8903;52.220;20.978;2024-03-22T12:21:04;10.20;99.90
17571;DHT22;8903;52.220;20.978;2024-03-22T12:23:29;10.20;99.90
17571;DHT22;8903;52.220;20.978;2024-03-22T12:25:55;10.20;99.90
17571;DHT22;8903;52.220;20.978;2024-03-22T12:28:21;10.30;99.90
17571;DHT22;8903;52.220;20.978;2024-03-22T12:30:48;10.30;99.90
17571;DHT22;8903;52.220;20.978;2024-03-22T12:33:14;10.30;99.90
17571;DHT22;8903;52.220;20.978;2024-03-22T12:35:40;10.30;99.90
17571;DHT22;8903;52.220;20.978;2024-03-22T12:38:06;10.40;99.90
17571;DHT22;8903;52.220;20.978;2024-03-22T12:40:34;10.40;99.90
17571;DHT22;8903;52.220;20.978;2024-03-22T12:43:00;10.40;99.90
17571;DHT22;8903;52.220;20.978;2024-03-22T12:45:25;10.50;99.90
17571;DHT22;8903;52.220;20.978;2024-03-22T12:47:51;10.50;99.90
17571;DHT22;8903;52.220;20.978;2024-03-22T12:50:18;10.60;99.90
17571;DHT22;8903;52.220;20.978;2024-03-22T12:52:43;10.60;99.90
17571;DHT22;8903;52.220;20.978;2024-03-22T12:55:10;10.50;99.90
17571;DHT22;8903;52.220;20.978;2024-03-22T12:57:36;10.50;99.90
17571;DHT22;8903;52.220;20.978;2024-03-22T13:00:02;10.50;99.90
17571;DHT22;8903;52.220;20.978;2024-03-22T13:02:29;10.50;99.90
17571;DHT22;8903;52.220;20.978;2024-03-22T13:04:57;10.50;99.90
17571;DHT22;8903;52.220;20.978;2024-03-22T13:07:24;10.50;99.90
17571;DHT22;8903;52.220;20.978;2024-03-22T13:09:50;10.50;99.90
17571;DHT22;8903;52.220;20.978;2024-03-22T13:12:18;10.50;99.90
17571;DHT22;8903;52.220;20.978;2024-03-22T13:14:44;10.50;99.90
17571;DHT22;8903;52.220;20.978;2024-03-22T13:17:09;10.60;99.90
17571;DHT22;8903;52.220;20.978;2024-03-22T13:19:35;10.60;99.90
17571;DHT22;8903;52.220;20.978;2024-03-22T13:22:01;10.60;99.90
17571;DHT22;8903;52.220;20.978;2024-03-22T13:24:26;10.60;99.90
17571;DHT22;8903;52.220;20.978;2024-03-22T13:26:52;10.60;99.90
17571;DHT22;8903;52.220;20.978;2024-03-22T13:29:18;10.60;99.90
17571;DHT22;8903;52.220;20.978;2024-03-22T13:31:43;10.70;99.90
17571;DHT22;8903;52.220;20.978;2024-03-22T13:34:09;10.70;99.90
17571;DHT22;8903;52.220;20.978;2024-03-22T13:36:35;10.80;99.90
17571;DHT22;8903;52.220;20.978;2024-03-22T13:39:04;10.90;99.90
17571;DHT22;8903;52.220;20.978;2024-03-22T13:41:30;10.90;99.90
17571;DHT22;8903;52.220;20.978;2024-03-22T13:43:55;11.00;99.90
17571;DHT22;8903;52.220;20.978;2024-03-22T13:46:21;11.10;99.90
17571;DHT22;8903;52.220;20.978;2024-03-22T13:48:47;11.10;99.90
17571;DHT22;8903;52.220;20.978;2024-03-22T13:51:13;11.20;99.90
17571;DHT22;8903;52.220;20.978;2024-03-22T13:53:39;11.30;99.90
17571;DHT22;8903;52.220;20.978;2024-03-22T13:56:05;11.30;99.90
17571;DHT22;8903;52.220;20.978;2024-03-22T13:58:31;11.30;99.90
17571;DHT22;8903;52.220;20.978;2024-03-22T14:00:57;11.30;99.90
17571;DHT22;8903;52.220;20.978;2024-03-22T14:03:23;11.20;99.90
17571;DHT22;8903;52.220;20.978;2024-03-22T14:05:48;11.20;99.90
17571;DHT22;8903;52.220;20.978;2024-03-22T14:08:14;11.20;99.90
17571;DHT22;8903;52.220;20.978;2024-03-22T14:10:40;11.20;99.90
17571;DHT22;8903;52.220;20.978;2024-03-22T14:13:06;11.20;99.90
17571;DHT22;8903;52.220;20.978;2024-03-22T14:15:33;11.10;99.90
17571;DHT22;8903;52.220;20.978;2024-03-22T14:18:01;11.00;99.90
17571;DHT22;8903;52.220;20.978;2024-03-22T14:20:27;11.10;99.90
17571;DHT22;8903;52.220;20.978;2024-03-22T14:22:55;11.10;99.90
17571;DHT22;8903;52.220;20.978;2024-03-22T14:25:20;11.10;99.90
17571;DHT22;8903;52.220;20.978;2024-03-22T14:27:47;11.10;99.90
17571;DHT22;8903;52.220;20.978;2024-03-22T14:30:13;11.10;99.90
17571;DHT22;8903;52.220;20.978;2024-03-22T14:32:40;11.10;99.90
17571;DHT22;8903;52.220;20.978;2024-03-22T14:35:06;11.10;99.90
17571;DHT22;8903;52.220;20.978;2024-03-22T14:37:32;11.10;99.90
17571;DHT22;8903;52.220;20.978;2024-03-22T14:39:59;11.10;99.90
17571;DHT22;8903;52.220;20.978;2024-03-22T14:42:25;11.10;99.90
17571;DHT22;8903;52.220;20.978;2024-03-22T14:44:51;11.10;99.90
17571;DHT22;8903;52.220;20.978;2024-03-22T14:47:17;11.00;99.90
17571;DHT22;8903;52.220;20.978;2024-03-22T14:49:42;11.10;99.90
17571;DHT22;8903;52.220;20.978;2024-03-22T14:52:08;11.10;99.90
17571;DHT22;8903;52.220;20.978;2024-03-22T14:54:34;11.10;99.90
17571;DHT22;8903;52.220;20.978;2024-03-22T14:57:00;11.00;99.90
17571;DHT22;8903;52.220;20.978;2024-03-22T14:59:29;11.00;99.90
17571;DHT22;8903;52.220;20.978;2024-03-22T15:01:55;11.00;99.90
17571;DHT22;8903;52.220;20.978;2024-03-22T15:04:22;11.10;99.90
17571;DHT22;8903;52.220;20.978;2024-03-22T15:06:48;11.10;99.90
17571;DHT22;8903;52.220;20.978;2024-03-22T15:09:20;11.00;99.90
17571;DHT22;8903;52.220;20.978;2024-03-22T15:11:46;11.00;99.90
17571;DHT22;8903;52.220;20.978;2024-03-22T15:14:13;11.10;99.90
17571;DHT22;8903;52.220;20.978;2024-03-22T15:16:39;11.00;99.90
17571;DHT22;8903;52.220;20.978;2024-03-22T15:19:07;11.00;99.90
17571;DHT22;8903;52.220;20.978;2024-03-22T15:21:33;11.00;99.90
17571;DHT22;8903;52.220;20.978;2024-03-22T15:24:00;10.90;99.90
17571;DHT22;8903;52.220;20.978;2024-03-22T15:26:25;10.80;99.90
17571;DHT22;8903;52.220;20.978;2024-03-22T15:28:51;10.80;99.90
17571;DHT22;8903;52.220;20.978;2024-03-22T15:31:17;10.70;99.90
17571;DHT22;8903;52.220;20.978;2024-03-22T15:33:43;10.70;99.90
17571;DHT22;8903;52.220;20.978;2024-03-22T15:36:09;10.60;99.90